sensor_id;sensor_type;location;lat;lon;timestamp;temperature;humidity
71563;DHT22;59391;52.504;13.438;2023-01-25T00:00:46;4.40;61.90
71563;DHT22;59391;52.504;13.438;2023-01-25T00:03:11;4.40;62.10
71563;DHT22;59391;52.504;13.438;2023-01-25T00:05:37;4.40;62.00
71563;DHT22;59391;52.504;13.438;2023-01-25T00:08:06;4.40;62.10
71563;DHT22;59391;52.504;13.438;2023-01-25T00:10:31;4.50;62.00
71563;DHT22;59391;52.504;13.438;2023-01-25T00:12:57;4.50;62.10
71563;DHT22;59391;52.504;13.438;2023-01-25T00:15:23;4.40;62.30
71563;DHT22;59391;52.504;13.438;2023-01-25T00:17:51;4.50;62.30
71563;DHT22;59391;52.504;13.438;2023-01-25T00:20:17;4.50;62.10
71563;DHT22;59391;52.504;13.438;2023-01-25T00:22:42;4.50;61.90
71563;DHT22;59391;52.504;13.438;2023-01-25T00:25:08;4.50;61.90
71563;DHT22;59391;52.504;13.438;2023-01-25T00:27:34;4.50;61.70
71563;DHT22;59391;52.504;13.438;2023-01-25T00:30:00;4.40;62.50
71563;DHT22;59391;52.504;13.438;2023-01-25T00:35:30;4.40;62.10
71563;DHT22;59391;52.504;13.438;2023-01-25T00:38:01;4.50;62.10
71563;DHT22;59391;52.504;13.438;2023-01-25T00:40:30;4.50;62.10
71563;DHT22;59391;52.504;13.438;2023-01-25T00:42:56;4.50;62.10
71563;DHT22;59391;52.504;13.438;2023-01-25T00:45:22;4.50;62.10
71563;DHT22;59391;52.504;13.438;2023-01-25T00:47:47;4.50;62.20
71563;DHT22;59391;52.504;13.438;2023-01-25T00:50:13;4.50;62.00
71563;DHT22;59391;52.504;13.438;2023-01-25T00:52:39;4.50;62.20
71563;DHT22;59391;52.504;13.438;2023-01-25T00:55:05;4.50;62.20
71563;DHT22;59391;52.504;13.438;2023-01-25T00:57:31;4.50;62.50
71563;DHT22;59391;52.504;13.438;2023-01-25T00:59:57;4.50;62.30
71563;DHT22;59391;52.504;13.438;2023-01-25T01:02:23;4.50;62.40
71563;DHT22;59391;52.504;13.438;2023-01-25T01:04:48;4.60;62.40
71563;DHT22;59391;52.504;13.438;2023-01-25T01:07:17;4.50;62.50
71563;DHT22;59391;52.504;13.438;2023-01-25T01:09:45;4.50;62.60
71563;DHT22;59391;52.504;13.438;2023-01-25T01:12:11;4.60;62.50
71563;DHT22;59391;52.504;13.438;2023-01-25T01:14:36;4.60;62.70
71563;DHT22;59391;52.504;13.438;2023-01-25T01:17:02;4.60;62.80
71563;DHT22;59391;52.504;13.438;2023-01-25T01:19:28;4.60;62.80
71563;DHT22;59391;52.504;13.438;2023-01-25T01:21:56;4.60;62.90
71563;DHT22;59391;52.504;13.438;2023-01-25T01:24:22;4.60;62.70
71563;DHT22;59391;52.504;13.438;2023-01-25T01:26:47;4.60;62.70
71563;DHT22;59391;52.504;13.438;2023-01-25T01:29:13;4.60;62.60
71563;DHT22;59391;52.504;13.438;2023-01-25T01:31:39;4.70;62.50
71563;DHT22;59391;52.504;13.438;2023-01-25T01:34:04;4.70;62.50
71563;DHT22;59391;52.504;13.438;2023-01-25T01:36:30;4.70;62.60
71563;DHT22;59391;52.504;13.438;2023-01-25T01:38:57;4.70;62.40
71563;DHT22;59391;52.504;13.438;2023-01-25T01:41:24;4.70;62.50
71563;DHT22;59391;52.504;13.438;2023-01-25T01:43:50;4.70;62.40
71563;DHT22;59391;52.504;13.438;2023-01-25T01:46:24;4.70;62.40
71563;DHT22;59391;52.504;13.438;2023-01-25T01:49:03;4.70;62.10
71563;DHT22;59391;52.504;13.438;2023-01-25T01:51:57;4.70;62.20
71563;DHT22;59391;52.504;13.438;2023-01-25T01:57:17;4.70;62.10
71563;DHT22;59391;52.504;13.438;2023-01-25T01:59:52;4.80;62.10
71563;DHT22;59391;52.504;13.438;2023-01-25T02:02:25;4.70;62.30
71563;DHT22;59391;52.504;13.438;2023-01-25T02:04:54;4.80;62.10
71563;DHT22;59391;52.504;13.438;2023-01-25T02:07:30;4.80;62.00
71563;DHT22;59391;52.504;13.438;2023-01-25T02:09:59;4.80;62.30
71563;DHT22;59391;52.504;13.438;2023-01-25T02:12:25;4.80;62.20
71563;DHT22;59391;52.504;13.438;2023-01-25T02:14:55;4.80;62.10
71563;DHT22;59391;52.504;13.438;2023-01-25T02:17:33;4.80;62.40
71563;DHT22;59391;52.504;13.438;2023-01-25T02:23:11;4.80;63.00
71563;DHT22;59391;52.504;13.438;2023-01-25T02:26:01;4.80;62.60
71563;DHT22;59391;52.504;13.438;2023-01-25T02:28:58;4.80;62.30
71563;DHT22;59391;52.504;13.438;2023-01-25T02:31:27;4.80;62.20
71563;DHT22;59391;52.504;13.438;2023-01-25T02:33:53;4.80;62.50
71563;DHT22;59391;52.504;13.438;2023-01-25T02:36:30;4.80;62.40
71563;DHT22;59391;52.504;13.438;2023-01-25T02:39:15;4.70;62.50
71563;DHT22;59391;52.504;13.438;2023-01-25T02:41:44;4.80;62.50
71563;DHT22;59391;52.504;13.438;2023-01-25T02:44:15;4.80;62.40
71563;DHT22;59391;52.504;13.438;2023-01-25T02:46:43;4.80;62.40
71563;DHT22;59391;52.504;13.438;2023-01-25T02:49:16;4.80;62.60
71563;DHT22;59391;52.504;13.438;2023-01-25T02:51:45;4.80;62.30
71563;DHT22;59391;52.504;13.438;2023-01-25T02:54:15;4.80;62.10
71563;DHT22;59391;52.504;13.438;2023-01-25T02:56:42;4.80;62.50
71563;DHT22;59391;52.504;13.438;2023-01-25T02:59:09;4.80;62.20
71563;DHT22;59391;52.504;13.438;2023-01-25T03:01:38;4.80;62.40
71563;DHT22;59391;52.504;13.438;2023-01-25T03:04:06;4.80;62.70
71563;DHT22;59391;52.504;13.438;2023-01-25T03:06:33;4.80;62.80
71563;DHT22;59391;52.504;13.438;2023-01-25T03:09:03;4.80;62.60
71563;DHT22;59391;52.504;13.438;2023-01-25T03:11:33;4.80;62.80
71563;DHT22;59391;52.504;13.438;2023-01-25T03:13:59;4.80;62.80
71563;DHT22;59391;52.504;13.438;2023-01-25T03:16:25;4.80;63.20
71563;DHT22;59391;52.504;13.438;2023-01-25T03:18:53;4.80;63.00
71563;DHT22;59391;52.504;13.438;2023-01-25T03:21:20;4.80;62.70
71563;DHT22;59391;52.504;13.438;2023-01-25T03:23:47;4.80;62.60
71563;DHT22;59391;52.504;13.438;2023-01-25T03:26:24;4.80;62.60
71563;DHT22;59391;52.504;13.438;2023-01-25T03:28:50;4.80;62.70
71563;DHT22;59391;52.504;13.438;2023-01-25T03:31:16;4.80;63.00
71563;DHT22;59391;52.504;13.438;2023-01-25T03:33:43;4.70;62.90
71563;DHT22;59391;52.504;13.438;2023-01-25T03:36:09;4.70;63.00
71563;DHT22;59391;52.504;13.438;2023-01-25T03:38:37;4.70;63.20
71563;DHT22;59391;52.504;13.438;2023-01-25T03:41:03;4.70;63.00
71563;DHT22;59391;52.504;13.438;2023-01-25T03:43:30;4.80;63.00
71563;DHT22;59391;52.504;13.438;2023-01-25T03:46:00;4.70;62.90
71563;DHT22;59391;52.504;13.438;2023-01-25T03:48:26;4.80;62.90
71563;DHT22;59391;52.504;13.438;2023-01-25T03:50:55;4.80;63.40
71563;DHT22;59391;52.504;13.438;2023-01-25T03:53:23;4.80;63.50
71563;DHT22;59391;52.504;13.438;2023-01-25T03:56:02;4.80;63.10
71563;DHT22;59391;52.504;13.438;2023-01-25T03:58:36;4.80;63.10
71563;DHT22;59391;52.504;13.438;2023-01-25T04:01:05;4.80;63.30
71563;DHT22;59391;52.504;13.438;2023-01-25T04:03:32;4.80;64.50
71563;DHT22;59391;52.504;13.438;2023-01-25T04:05:59;4.80;63.90
71563;DHT22;59391;52.504;13.438;2023-01-25T04:08:28;4.80;63.80
71563;DHT22;59391;52.504;13.438;2023-01-25T04:10:56;4.80;63.70
71563;DHT22;59391;52.504;13.438;2023-01-25T04:13:27;4.80;63.30
71563;DHT22;59391;52.504;13.438;2023-01-25T04:15:55;4.80;63.80
71563;DHT22;59391;52.504;13.438;2023-01-25T04:18:21;4.80;64.00
71563;DHT22;59391;52.504;13.438;2023-01-25T04:20:54;4.80;65.30
71563;DHT22;59391;52.504;13.438;2023-01-25T04:23:22;4.80;64.00
71563;DHT22;59391;52.504;13.438;2023-01-25T04:25:52;4.80;64.10
71563;DHT22;59391;52.504;13.438;2023-01-25T04:28:26;4.80;64.40
71563;DHT22;59391;52.504;13.438;2023-01-25T04:30:55;4.80;64.60
71563;DHT22;59391;52.504;13.438;2023-01-25T04:33:21;4.90;64.40
71563;DHT22;59391;52.504;13.438;2023-01-25T04:35:47;4.80;64.10
71563;DHT22;59391;52.504;13.438;2023-01-25T04:38:13;4.80;66.70
71563;DHT22;59391;52.504;13.438;2023-01-25T04:40:39;4.90;65.50
71563;DHT22;59391;52.504;13.438;2023-01-25T04:43:05;4.90;66.00
71563;DHT22;59391;52.504;13.438;2023-01-25T04:45:31;4.90;66.00
71563;DHT22;59391;52.504;13.438;2023-01-25T04:48:05;4.90;65.90
71563;DHT22;59391;52.504;13.438;2023-01-25T04:50:36;4.90;65.60
71563;DHT22;59391;52.504;13.438;2023-01-25T04:53:06;4.90;63.90
71563;DHT22;59391;52.504;13.438;2023-01-25T04:55:39;4.80;64.60
71563;DHT22;59391;52.504;13.438;2023-01-25T04:58:04;4.70;65.40
71563;DHT22;59391;52.504;13.438;2023-01-25T05:00:30;4.70;65.30
71563;DHT22;59391;52.504;13.438;2023-01-25T05:02:59;4.70;65.20
71563;DHT22;59391;52.504;13.438;2023-01-25T05:05:25;4.60;66.20
71563;DHT22;59391;52.504;13.438;2023-01-25T05:07:50;4.70;66.40
71563;DHT22;59391;52.504;13.438;2023-01-25T05:10:16;4.70;67.30
71563;DHT22;59391;52.504;13.438;2023-01-25T05:12:42;4.70;66.10
71563;DHT22;59391;52.504;13.438;2023-01-25T05:15:08;4.70;66.60
71563;DHT22;59391;52.504;13.438;2023-01-25T05:17:34;4.70;66.00
71563;DHT22;59391;52.504;13.438;2023-01-25T05:20:00;4.70;67.00
71563;DHT22;59391;52.504;13.438;2023-01-25T05:22:28;4.70;67.30
71563;DHT22;59391;52.504;13.438;2023-01-25T05:24:54;4.70;66.30
71563;DHT22;59391;52.504;13.438;2023-01-25T05:27:20;4.60;66.10
71563;DHT22;59391;52.504;13.438;2023-01-25T05:29:47;4.60;67.00
71563;DHT22;59391;52.504;13.438;2023-01-25T05:32:20;4.60;67.50
71563;DHT22;59391;52.504;13.438;2023-01-25T05:34:47;4.60;67.00
71563;DHT22;59391;52.504;13.438;2023-01-25T05:37:18;4.60;66.60
71563;DHT22;59391;52.504;13.438;2023-01-25T05:39:47;4.60;66.00
71563;DHT22;59391;52.504;13.438;2023-01-25T05:42:15;4.50;65.10
71563;DHT22;59391;52.504;13.438;2023-01-25T05:44:50;4.50;66.10
71563;DHT22;59391;52.504;13.438;2023-01-25T05:47:19;4.50;66.00
71563;DHT22;59391;52.504;13.438;2023-01-25T05:49:45;4.50;66.40
71563;DHT22;59391;52.504;13.438;2023-01-25T05:52:23;4.50;66.40
71563;DHT22;59391;52.504;13.438;2023-01-25T05:54:55;4.50;66.50
71563;DHT22;59391;52.504;13.438;2023-01-25T05:57:45;4.60;66.30
71563;DHT22;59391;52.504;13.438;2023-01-25T06:03:34;4.60;67.30
71563;DHT22;59391;52.504;13.438;2023-01-25T06:06:03;4.60;67.20
71563;DHT22;59391;52.504;13.438;2023-01-25T06:08:31;4.60;66.80
71563;DHT22;59391;52.504;13.438;2023-01-25T06:11:08;4.60;66.80
71563;DHT22;59391;52.504;13.438;2023-01-25T06:13:35;4.60;67.10
71563;DHT22;59391;52.504;13.438;2023-01-25T06:24:05;4.60;67.50
71563;DHT22;59391;52.504;13.438;2023-01-25T06:26:31;4.60;67.90
71563;DHT22;59391;52.504;13.438;2023-01-25T06:29:05;4.60;68.10
71563;DHT22;59391;52.504;13.438;2023-01-25T06:31:31;4.60;67.40
71563;DHT22;59391;52.504;13.438;2023-01-25T06:34:06;4.60;67.00
71563;DHT22;59391;52.504;13.438;2023-01-25T06:36:44;4.50;67.60
71563;DHT22;59391;52.504;13.438;2023-01-25T06:39:13;4.50;67.00
71563;DHT22;59391;52.504;13.438;2023-01-25T06:41:38;4.40;66.70
71563;DHT22;59391;52.504;13.438;2023-01-25T06:44:04;4.40;68.30
71563;DHT22;59391;52.504;13.438;2023-01-25T06:46:31;4.40;68.50
71563;DHT22;59391;52.504;13.438;2023-01-25T06:48:57;4.40;67.20
71563;DHT22;59391;52.504;13.438;2023-01-25T06:51:23;4.40;67.40
71563;DHT22;59391;52.504;13.438;2023-01-25T06:53:49;4.40;68.70
71563;DHT22;59391;52.504;13.438;2023-01-25T06:56:21;4.40;68.00
71563;DHT22;59391;52.504;13.438;2023-01-25T06:58:50;4.30;68.40
71563;DHT22;59391;52.504;13.438;2023-01-25T07:01:21;4.40;69.20
71563;DHT22;59391;52.504;13.438;2023-01-25T07:03:56;4.40;68.50
71563;DHT22;59391;52.504;13.438;2023-01-25T07:06:23;4.40;68.30
71563;DHT22;59391;52.504;13.438;2023-01-25T07:08:50;4.40;68.30
71563;DHT22;59391;52.504;13.438;2023-01-25T07:11:19;4.40;68.00
71563;DHT22;59391;52.504;13.438;2023-01-25T07:13:48;4.30;67.50
71563;DHT22;59391;52.504;13.438;2023-01-25T07:16:18;4.40;68.50
71563;DHT22;59391;52.504;13.438;2023-01-25T07:19:28;4.40;68.80
71563;DHT22;59391;52.504;13.438;2023-01-25T07:21:57;4.40;68.20
71563;DHT22;59391;52.504;13.438;2023-01-25T07:24:23;4.40;68.30
71563;DHT22;59391;52.504;13.438;2023-01-25T07:26:53;4.40;67.90
71563;DHT22;59391;52.504;13.438;2023-01-25T07:29:18;4.30;67.20
71563;DHT22;59391;52.504;13.438;2023-01-25T07:31:47;4.30;67.60
71563;DHT22;59391;52.504;13.438;2023-01-25T07:34:13;4.20;67.20
71563;DHT22;59391;52.504;13.438;2023-01-25T07:36:41;4.20;67.80
71563;DHT22;59391;52.504;13.438;2023-01-25T07:39:11;4.20;68.80
71563;DHT22;59391;52.504;13.438;2023-01-25T07:41:38;4.20;68.90
71563;DHT22;59391;52.504;13.438;2023-01-25T07:44:04;4.30;69.30
71563;DHT22;59391;52.504;13.438;2023-01-25T07:46:30;4.30;68.90
71563;DHT22;59391;52.504;13.438;2023-01-25T07:48:56;4.30;69.40
71563;DHT22;59391;52.504;13.438;2023-01-25T07:51:23;4.20;68.60
71563;DHT22;59391;52.504;13.438;2023-01-25T07:53:57;4.20;68.70
71563;DHT22;59391;52.504;13.438;2023-01-25T07:56:29;4.20;69.10
71563;DHT22;59391;52.504;13.438;2023-01-25T07:59:09;4.20;69.00
71563;DHT22;59391;52.504;13.438;2023-01-25T08:02:02;4.20;69.20
71563;DHT22;59391;52.504;13.438;2023-01-25T08:04:31;4.20;69.10
71563;DHT22;59391;52.504;13.438;2023-01-25T08:06:56;4.20;69.10
71563;DHT22;59391;52.504;13.438;2023-01-25T08:09:31;4.30;69.20
71563;DHT22;59391;52.504;13.438;2023-01-25T08:12:19;4.20;69.60
71563;DHT22;59391;52.504;13.438;2023-01-25T08:14:46;4.30;69.10
71563;DHT22;59391;52.504;13.438;2023-01-25T08:17:14;4.30;70.00
71563;DHT22;59391;52.504;13.438;2023-01-25T08:19:40;4.30;69.60
71563;DHT22;59391;52.504;13.438;2023-01-25T08:22:11;4.30;68.70
71563;DHT22;59391;52.504;13.438;2023-01-25T08:24:38;4.30;68.80
71563;DHT22;59391;52.504;13.438;2023-01-25T08:27:17;4.20;69.60
71563;DHT22;59391;52.504;13.438;2023-01-25T08:29:54;4.20;69.70
71563;DHT22;59391;52.504;13.438;2023-01-25T08:32:44;4.10;69.80
71563;DHT22;59391;52.504;13.438;2023-01-25T08:35:59;4.10;69.30
71563;DHT22;59391;52.504;13.438;2023-01-25T08:39:21;4.00;70.20
71563;DHT22;59391;52.504;13.438;2023-01-25T08:42:16;4.00;70.50
71563;DHT22;59391;52.504;13.438;2023-01-25T08:45:14;4.00;70.50
71563;DHT22;59391;52.504;13.438;2023-01-25T08:48:06;3.90;70.80
71563;DHT22;59391;52.504;13.438;2023-01-25T08:50:57;3.90;70.80
71563;DHT22;59391;52.504;13.438;2023-01-25T08:53:55;3.80;70.70
71563;DHT22;59391;52.504;13.438;2023-01-25T08:57:03;3.80;71.50
71563;DHT22;59391;52.504;13.438;2023-01-25T08:59:54;3.80;71.50
71563;DHT22;59391;52.504;13.438;2023-01-25T09:02:48;3.80;71.60
71563;DHT22;59391;52.504;13.438;2023-01-25T09:05:43;3.80;71.40
71563;DHT22;59391;52.504;13.438;2023-01-25T09:08:59;3.80;71.10
71563;DHT22;59391;52.504;13.438;2023-01-25T09:14:13;3.80;71.30
71563;DHT22;59391;52.504;13.438;2023-01-25T09:16:53;3.70;71.70
71563;DHT22;59391;52.504;13.438;2023-01-25T09:19:53;3.70;72.60
71563;DHT22;59391;52.504;13.438;2023-01-25T09:22:28;3.80;72.20
71563;DHT22;59391;52.504;13.438;2023-01-25T09:25:41;3.80;71.70
71563;DHT22;59391;52.504;13.438;2023-01-25T09:28:48;3.80;71.80
71563;DHT22;59391;52.504;13.438;2023-01-25T09:32:00;3.80;72.10
71563;DHT22;59391;52.504;13.438;2023-01-25T09:34:26;3.80;71.90
71563;DHT22;59391;52.504;13.438;2023-01-25T09:36:52;3.80;71.80
71563;DHT22;59391;52.504;13.438;2023-01-25T09:39:20;3.80;71.60
71563;DHT22;59391;52.504;13.438;2023-01-25T09:42:02;3.80;71.00
71563;DHT22;59391;52.504;13.438;2023-01-25T09:45:00;3.70;71.60
71563;DHT22;59391;52.504;13.438;2023-01-25T09:50:22;3.70;71.10
71563;DHT22;59391;52.504;13.438;2023-01-25T09:55:50;3.80;71.80
71563;DHT22;59391;52.504;13.438;2023-01-25T09:58:28;3.70;71.80
71563;DHT22;59391;52.504;13.438;2023-01-25T10:04:32;3.80;72.40
71563;DHT22;59391;52.504;13.438;2023-01-25T10:07:11;3.80;71.80
71563;DHT22;59391;52.504;13.438;2023-01-25T10:10:15;3.80;72.00
71563;DHT22;59391;52.504;13.438;2023-01-25T10:12:46;3.80;71.80
71563;DHT22;59391;52.504;13.438;2023-01-25T10:15:22;3.80;71.50
71563;DHT22;59391;52.504;13.438;2023-01-25T10:18:15;3.80;71.60
71563;DHT22;59391;52.504;13.438;2023-01-25T10:20:50;3.80;71.80
71563;DHT22;59391;52.504;13.438;2023-01-25T10:26:40;3.90;72.20
71563;DHT22;59391;52.504;13.438;2023-01-25T10:29:22;3.90;71.20
71563;DHT22;59391;52.504;13.438;2023-01-25T10:32:26;3.90;71.50
71563;DHT22;59391;52.504;13.438;2023-01-25T10:34:58;3.80;71.50
71563;DHT22;59391;52.504;13.438;2023-01-25T10:37:37;3.80;71.50
71563;DHT22;59391;52.504;13.438;2023-01-25T10:40:14;3.80;71.40
71563;DHT22;59391;52.504;13.438;2023-01-25T10:42:57;3.80;71.50
71563;DHT22;59391;52.504;13.438;2023-01-25T10:45:27;3.70;71.90
71563;DHT22;59391;52.504;13.438;2023-01-25T10:48:23;3.70;71.70
71563;DHT22;59391;52.504;13.438;2023-01-25T10:50:55;3.60;71.90
71563;DHT22;59391;52.504;13.438;2023-01-25T10:53:31;3.60;71.80
71563;DHT22;59391;52.504;13.438;2023-01-25T10:56:05;3.60;72.10
71563;DHT22;59391;52.504;13.438;2023-01-25T10:58:50;3.60;72.30
71563;DHT22;59391;52.504;13.438;2023-01-25T11:01:28;3.50;73.00
71563;DHT22;59391;52.504;13.438;2023-01-25T11:03:56;3.50;72.70
71563;DHT22;59391;52.504;13.438;2023-01-25T11:06:30;3.60;72.80
71563;DHT22;59391;52.504;13.438;2023-01-25T11:12:00;3.60;72.70
71563;DHT22;59391;52.504;13.438;2023-01-25T11:14:30;3.50;72.10
71563;DHT22;59391;52.504;13.438;2023-01-25T11:16:59;3.50;72.70
71563;DHT22;59391;52.504;13.438;2023-01-25T11:19:34;3.50;73.50
71563;DHT22;59391;52.504;13.438;2023-01-25T11:22:04;3.50;72.60
71563;DHT22;59391;52.504;13.438;2023-01-25T11:24:47;3.50;72.90
71563;DHT22;59391;52.504;13.438;2023-01-25T11:27:24;3.60;73.30
71563;DHT22;59391;52.504;13.438;2023-01-25T11:30:17;3.60;73.80
71563;DHT22;59391;52.504;13.438;2023-01-25T11:32:44;3.60;73.10
71563;DHT22;59391;52.504;13.438;2023-01-25T11:35:14;3.60;73.80
71563;DHT22;59391;52.504;13.438;2023-01-25T11:41:16;3.70;73.40
71563;DHT22;59391;52.504;13.438;2023-01-25T11:44:22;3.60;72.40
71563;DHT22;59391;52.504;13.438;2023-01-25T11:47:21;3.60;73.50
71563;DHT22;59391;52.504;13.438;2023-01-25T11:53:01;3.60;73.20
71563;DHT22;59391;52.504;13.438;2023-01-25T11:55:48;3.60;73.30
71563;DHT22;59391;52.504;13.438;2023-01-25T11:58:34;3.60;73.90
71563;DHT22;59391;52.504;13.438;2023-01-25T12:04:13;3.60;73.50
71563;DHT22;59391;52.504;13.438;2023-01-25T12:07:02;3.60;74.00
71563;DHT22;59391;52.504;13.438;2023-01-25T12:12:59;3.60;74.30
71563;DHT22;59391;52.504;13.438;2023-01-25T12:16:01;3.70;74.30
71563;DHT22;59391;52.504;13.438;2023-01-25T12:18:57;3.70;73.80
71563;DHT22;59391;52.504;13.438;2023-01-25T12:25:24;3.60;73.90
71563;DHT22;59391;52.504;13.438;2023-01-25T12:28:13;3.60;73.90
71563;DHT22;59391;52.504;13.438;2023-01-25T12:30:55;3.60;73.60
71563;DHT22;59391;52.504;13.438;2023-01-25T12:33:49;3.60;73.40
71563;DHT22;59391;52.504;13.438;2023-01-25T12:36:35;3.60;73.50
71563;DHT22;59391;52.504;13.438;2023-01-25T12:39:04;3.50;72.90
71563;DHT22;59391;52.504;13.438;2023-01-25T12:42:03;3.50;73.60
71563;DHT22;59391;52.504;13.438;2023-01-25T12:47:36;3.40;73.70
71563;DHT22;59391;52.504;13.438;2023-01-25T12:52:58;3.40;73.50
71563;DHT22;59391;52.504;13.438;2023-01-25T12:55:54;3.40;74.60
71563;DHT22;59391;52.504;13.438;2023-01-25T12:58:46;3.50;73.90
71563;DHT22;59391;52.504;13.438;2023-01-25T13:02:00;3.40;73.80
71563;DHT22;59391;52.504;13.438;2023-01-25T13:04:40;3.40;73.80
71563;DHT22;59391;52.504;13.438;2023-01-25T13:07:59;3.40;73.60
71563;DHT22;59391;52.504;13.438;2023-01-25T13:10:38;3.40;74.20
71563;DHT22;59391;52.504;13.438;2023-01-25T13:13:27;3.40;74.30
71563;DHT22;59391;52.504;13.438;2023-01-25T13:15:54;3.50;74.10
71563;DHT22;59391;52.504;13.438;2023-01-25T13:21:00;3.50;74.60
71563;DHT22;59391;52.504;13.438;2023-01-25T13:23:43;3.60;74.30
71563;DHT22;59391;52.504;13.438;2023-01-25T13:28:47;3.70;73.90
71563;DHT22;59391;52.504;13.438;2023-01-25T13:34:12;3.70;73.00
71563;DHT22;59391;52.504;13.438;2023-01-25T13:37:24;3.60;72.50
71563;DHT22;59391;52.504;13.438;2023-01-25T13:39:55;3.50;72.80
71563;DHT22;59391;52.504;13.438;2023-01-25T13:42:38;3.50;72.80
71563;DHT22;59391;52.504;13.438;2023-01-25T13:45:13;3.50;72.70
71563;DHT22;59391;52.504;13.438;2023-01-25T13:47:44;3.50;72.80
71563;DHT22;59391;52.504;13.438;2023-01-25T13:50:56;3.50;73.20
71563;DHT22;59391;52.504;13.438;2023-01-25T13:53:29;3.50;73.20
71563;DHT22;59391;52.504;13.438;2023-01-25T13:56:00;3.50;73.80
71563;DHT22;59391;52.504;13.438;2023-01-25T13:58:34;3.60;73.70
71563;DHT22;59391;52.504;13.438;2023-01-25T14:01:16;3.60;73.40
71563;DHT22;59391;52.504;13.438;2023-01-25T14:03:46;3.60;73.10
71563;DHT22;59391;52.504;13.438;2023-01-25T14:06:39;3.60;73.60
71563;DHT22;59391;52.504;13.438;2023-01-25T14:09:12;3.60;73.20
71563;DHT22;59391;52.504;13.438;2023-01-25T14:11:52;3.60;72.90
71563;DHT22;59391;52.504;13.438;2023-01-25T14:14:28;3.60;72.20
71563;DHT22;59391;52.504;13.438;2023-01-25T14:17:18;3.60;72.90
71563;DHT22;59391;52.504;13.438;2023-01-25T14:19:54;3.50;73.10
71563;DHT22;59391;52.504;13.438;2023-01-25T14:22:28;3.50;73.00
71563;DHT22;59391;52.504;13.438;2023-01-25T14:25:13;3.50;73.10
71563;DHT22;59391;52.504;13.438;2023-01-25T14:27:47;3.40;73.30
71563;DHT22;59391;52.504;13.438;2023-01-25T14:30:32;3.40;73.20
71563;DHT22;59391;52.504;13.438;2023-01-25T14:35:46;3.40;73.70
71563;DHT22;59391;52.504;13.438;2023-01-25T14:41:16;3.40;73.10
71563;DHT22;59391;52.504;13.438;2023-01-25T14:44:11;3.40;73.10
71563;DHT22;59391;52.504;13.438;2023-01-25T14:46:42;3.30;73.60
71563;DHT22;59391;52.504;13.438;2023-01-25T14:54:28;3.30;73.10
71563;DHT22;59391;52.504;13.438;2023-01-25T14:57:01;3.20;73.30
71563;DHT22;59391;52.504;13.438;2023-01-25T14:59:34;3.20;73.60
71563;DHT22;59391;52.504;13.438;2023-01-25T15:02:26;3.20;73.80
71563;DHT22;59391;52.504;13.438;2023-01-25T15:05:19;3.20;74.20
71563;DHT22;59391;52.504;13.438;2023-01-25T15:08:43;3.30;74.30
71563;DHT22;59391;52.504;13.438;2023-01-25T15:11:00;3.30;74.40
71563;DHT22;59391;52.504;13.438;2023-01-25T15:13:45;3.30;74.20
71563;DHT22;59391;52.504;13.438;2023-01-25T15:16:11;3.30;73.90
71563;DHT22;59391;52.504;13.438;2023-01-25T15:21:32;3.20;74.10
71563;DHT22;59391;52.504;13.438;2023-01-25T15:24:06;3.20;74.30
71563;DHT22;59391;52.504;13.438;2023-01-25T15:26:41;3.20;73.80
71563;DHT22;59391;52.504;13.438;2023-01-25T15:29:15;3.10;74.50
71563;DHT22;59391;52.504;13.438;2023-01-25T15:31:48;3.10;74.50
71563;DHT22;59391;52.504;13.438;2023-01-25T15:34:20;3.10;74.50
71563;DHT22;59391;52.504;13.438;2023-01-25T15:36:51;3.10;74.40
71563;DHT22;59391;52.504;13.438;2023-01-25T15:39:20;3.10;74.70
71563;DHT22;59391;52.504;13.438;2023-01-25T15:41:54;3.00;74.20
71563;DHT22;59391;52.504;13.438;2023-01-25T15:44:20;3.00;74.40
71563;DHT22;59391;52.504;13.438;2023-01-25T15:46:50;3.10;75.10
71563;DHT22;59391;52.504;13.438;2023-01-25T15:49:26;3.10;75.30
71563;DHT22;59391;52.504;13.438;2023-01-25T15:51:55;3.10;75.60
71563;DHT22;59391;52.504;13.438;2023-01-25T15:54:24;3.10;75.70
71563;DHT22;59391;52.504;13.438;2023-01-25T15:56:55;3.10;75.60
71563;DHT22;59391;52.504;13.438;2023-01-25T15:59:22;3.10;75.30
71563;DHT22;59391;52.504;13.438;2023-01-25T16:01:51;3.10;75.40
71563;DHT22;59391;52.504;13.438;2023-01-25T16:04:17;3.20;75.70
71563;DHT22;59391;52.504;13.438;2023-01-25T16:06:45;3.10;76.00
71563;DHT22;59391;52.504;13.438;2023-01-25T16:09:29;3.20;75.70
71563;DHT22;59391;52.504;13.438;2023-01-25T16:11:57;3.20;76.00
71563;DHT22;59391;52.504;13.438;2023-01-25T16:14:29;3.20;75.50
71563;DHT22;59391;52.504;13.438;2023-01-25T16:17:10;3.20;75.30
71563;DHT22;59391;52.504;13.438;2023-01-25T16:19:49;3.20;75.00
71563;DHT22;59391;52.504;13.438;2023-01-25T16:22:16;3.20;75.20
71563;DHT22;59391;52.504;13.438;2023-01-25T16:24:43;3.10;75.50
71563;DHT22;59391;52.504;13.438;2023-01-25T16:27:19;3.10;75.10
71563;DHT22;59391;52.504;13.438;2023-01-25T16:29:55;3.10;75.80
71563;DHT22;59391;52.504;13.438;2023-01-25T16:32:28;3.10;75.80
71563;DHT22;59391;52.504;13.438;2023-01-25T16:35:04;3.20;75.80
71563;DHT22;59391;52.504;13.438;2023-01-25T16:37:31;3.10;75.60
71563;DHT22;59391;52.504;13.438;2023-01-25T16:40:27;3.10;75.40
71563;DHT22;59391;52.504;13.438;2023-01-25T16:43:02;3.10;74.90
71563;DHT22;59391;52.504;13.438;2023-01-25T16:45:41;3.00;75.20
71563;DHT22;59391;52.504;13.438;2023-01-25T16:48:25;3.00;75.90
71563;DHT22;59391;52.504;13.438;2023-01-25T16:50:51;3.00;75.60
71563;DHT22;59391;52.504;13.438;2023-01-25T16:53:19;3.00;74.90
71563;DHT22;59391;52.504;13.438;2023-01-25T16:55:45;3.00;75.00
71563;DHT22;59391;52.504;13.438;2023-01-25T16:58:12;2.90;75.00
71563;DHT22;59391;52.504;13.438;2023-01-25T17:00:38;2.90;75.00
71563;DHT22;59391;52.504;13.438;2023-01-25T17:03:04;2.90;75.60
71563;DHT22;59391;52.504;13.438;2023-01-25T17:05:30;2.90;75.50
71563;DHT22;59391;52.504;13.438;2023-01-25T17:07:58;2.90;75.30
71563;DHT22;59391;52.504;13.438;2023-01-25T17:10:26;2.90;76.30
71563;DHT22;59391;52.504;13.438;2023-01-25T17:12:54;2.90;75.80
71563;DHT22;59391;52.504;13.438;2023-01-25T17:15:19;2.90;76.00
71563;DHT22;59391;52.504;13.438;2023-01-25T17:17:45;2.90;75.40
71563;DHT22;59391;52.504;13.438;2023-01-25T17:20:11;2.90;75.20
71563;DHT22;59391;52.504;13.438;2023-01-25T17:22:37;2.90;76.10
71563;DHT22;59391;52.504;13.438;2023-01-25T17:25:04;2.90;75.30
71563;DHT22;59391;52.504;13.438;2023-01-25T17:27:30;2.90;75.30
71563;DHT22;59391;52.504;13.438;2023-01-25T17:29:55;2.90;75.90
71563;DHT22;59391;52.504;13.438;2023-01-25T17:32:21;2.90;75.70
71563;DHT22;59391;52.504;13.438;2023-01-25T17:34:48;2.90;75.90
71563;DHT22;59391;52.504;13.438;2023-01-25T17:37:17;3.00;76.30